Tuotuohe, China
Current Conditions -  °F | °C
As of 12:50 AM on Sunday 26 Oct 2014 (Local Time) from VNKT Reporting Station
Few Clouds Few Clouds  
Wind Chill: 59°   Ceiling: Unl
Heat Index: 59°   Visibility: 5mi
Dew Point: 52°   Wind: 5mph
Humidity: 77%   Direction: 100°E
Pressure: 30.21"   Gusts: NA
Location:  34.22°N, 92.43°E
Report Text: VNKT 251650Z 10004KT 8000 FEW020 15/11 Q1023 NOSIG
Loading
Personal Weather Stations






























Interactive Weather Map
Tropical Storm Tracking
New forecast layout! Learn more

10-Day Weather Forecast

Advertisements
Track Severe Weather on mobile